Terminal Aerodrome Forecast
Issued by NWS

Home | Current Version | Previous Version | Graphics & Text | Print | Product List | Glossary On
Versions: 1 2 3 4 5 6 7 8 9 10 11 12 13 14 15 16 17 18
194
FTUS43 KBIS 261732
TAFJMS
TAF
KJMS 261732Z 2618/2718 07012KT P6SM BKN006 OVC011
      TEMPO 2618/2621 4SM BR OVC011
     FM262100 08013G22KT P6SM OVC015
     FM270100 08009KT P6SM OVC015
     FM271300 07011KT P6SM VCSH OVC060=

USA.gov is the U.S. government's official web portal to all federal, state and local government web resources and services.